createdAt,value
2022-09-02T00:00:00.324Z,0.4
2022-09-02T00:05:00.154Z,0.0
2022-09-02T00:10:00.280Z,0.0
2022-09-02T00:15:00.137Z,0.1
2022-09-02T00:20:00.389Z,0.9
2022-09-02T00:25:00.137Z,0.3
2022-09-02T00:30:00.295Z,1.0
2022-09-02T00:35:00.151Z,2.2
2022-09-02T00:40:00.304Z,0.7
2022-09-02T00:45:00.171Z,1.0
2022-09-02T00:50:00.303Z,0.8
2022-09-02T00:55:00.117Z,1.9
2022-09-02T01:00:00.304Z,2.8
2022-09-02T01:05:00.127Z,2.8
2022-09-02T01:10:00.295Z,3.0
2022-09-02T01:15:00.151Z,3.4
2022-09-02T01:20:00.295Z,1.4
2022-09-02T01:25:00.135Z,1.5
2022-09-02T01:30:00.317Z,3.0
2022-09-02T01:35:00.123Z,2.3
2022-09-02T01:40:00.298Z,2.6
2022-09-02T01:45:00.137Z,0.9
2022-09-02T01:50:00.287Z,2.8
2022-09-02T01:55:00.120Z,2.3
2022-09-02T02:00:00.290Z,2.4
2022-09-02T02:05:00.127Z,1.9
2022-09-02T02:10:00.284Z,2.2
2022-09-02T02:15:00.154Z,2.3
2022-09-02T02:20:00.304Z,1.9
2022-09-02T02:25:00.157Z,1.6
2022-09-02T02:30:00.319Z,1.8
2022-09-02T02:35:00.123Z,1.7
2022-09-02T02:40:00.329Z,2.4
2022-09-02T02:45:00.160Z,1.8
2022-09-02T02:50:00.284Z,2.2
2022-09-02T02:55:00.145Z,2.6
2022-09-02T03:00:00.332Z,2.7
2022-09-02T03:05:00.162Z,3.0
2022-09-02T03:10:00.285Z,2.5
2022-09-02T03:15:00.169Z,1.2
2022-09-02T03:20:00.321Z,0.9
2022-09-02T03:25:00.173Z,1.6
2022-09-02T03:30:00.282Z,2.1
2022-09-02T03:35:00.125Z,2.4
2022-09-02T03:40:00.349Z,0.4
2022-09-02T03:45:00.201Z,1.4
2022-09-02T03:50:00.310Z,1.7
2022-09-02T03:55:00.695Z,2.7
2022-09-02T04:00:00.342Z,1.9
2022-09-02T04:05:00.131Z,1.8
2022-09-02T04:10:00.263Z,2.3
2022-09-02T04:15:00.140Z,2.1
2022-09-02T04:20:00.289Z,1.3
2022-09-02T04:25:00.127Z,1.2
2022-09-02T04:30:00.295Z,1.2
2022-09-02T04:35:00.133Z,1.3
2022-09-02T04:40:00.287Z,0.9
2022-09-02T04:45:00.153Z,0.7
2022-09-02T04:50:00.289Z,1.1
2022-09-02T04:55:00.139Z,2.5
2022-09-02T05:00:00.337Z,2.5
2022-09-02T05:05:00.144Z,2.5
2022-09-02T05:10:00.276Z,2.1
2022-09-02T05:15:00.142Z,2.0
2022-09-02T05:20:00.305Z,1.8
2022-09-02T05:25:00.716Z,1.5
2022-09-02T05:30:00.293Z,3.7
2022-09-02T05:35:00.112Z,2.1
2022-09-02T05:40:01.492Z,3.5
2022-09-02T05:45:00.124Z,2.1
2022-09-02T05:50:00.313Z,4.2
2022-09-02T05:55:00.150Z,3.5
2022-09-02T06:00:00.295Z,5.6
2022-09-02T06:05:00.113Z,3.6
2022-09-02T06:10:00.295Z,3.4
2022-09-02T06:15:00.179Z,4.1
2022-09-02T06:20:00.284Z,3.4
2022-09-02T06:25:00.142Z,2.8
2022-09-02T06:30:00.322Z,4.9
2022-09-02T06:35:00.144Z,5.3
2022-09-02T06:40:00.293Z,4.1
2022-09-02T06:45:00.146Z,3.9
2022-09-02T06:50:00.299Z,3.2
2022-09-02T06:55:00.139Z,2.8
2022-09-02T07:00:02.352Z,2.3
2022-09-02T07:05:00.146Z,2.7
2022-09-02T07:10:00.312Z,2.8
2022-09-02T07:15:00.139Z,3.4
2022-09-02T07:20:00.326Z,4.5
2022-09-02T07:25:00.134Z,4.9
2022-09-02T07:30:00.427Z,6.0
2022-09-02T07:35:00.139Z,5.6
2022-09-02T07:40:00.316Z,5.8
2022-09-02T07:45:00.266Z,5.8
2022-09-02T07:50:20.014Z,4.4
2022-09-02T07:55:00.162Z,6.8
2022-09-02T08:00:00.317Z,6.9
2022-09-02T08:05:00.130Z,4.4
2022-09-02T08:10:00.284Z,6.1
2022-09-02T08:15:00.381Z,4.1
2022-09-02T08:20:00.305Z,3.9
2022-09-02T08:25:00.126Z,4.1
2022-09-02T08:30:00.292Z,2.8
2022-09-02T08:35:00.163Z,5.7
2022-09-02T08:40:00.306Z,8.7
2022-09-02T08:45:00.227Z,5.8
2022-09-02T08:50:00.290Z,3.5
2022-09-02T08:55:00.159Z,5.9
2022-09-02T09:00:00.421Z,3.9
2022-09-02T09:05:00.140Z,3.5
2022-09-02T09:10:00.330Z,8.9
2022-09-02T09:15:00.182Z,3.9
2022-09-02T09:20:00.289Z,3.8
2022-09-02T09:25:00.321Z,2.4
2022-09-02T09:30:00.616Z,3.6
2022-09-02T09:35:00.646Z,4.2
2022-09-02T09:40:00.315Z,4.4
2022-09-02T09:45:00.161Z,4.7
2022-09-02T09:50:00.331Z,5.3
2022-09-02T09:55:00.176Z,5.1
2022-09-02T10:00:00.380Z,3.4
2022-09-02T10:05:00.290Z,4.9
2022-09-02T10:10:00.298Z,5.5
2022-09-02T10:15:00.172Z,7.7
2022-09-02T10:20:05.040Z,4.0
2022-09-02T10:25:00.140Z,2.9
2022-09-02T10:30:00.553Z,3.0
2022-09-02T10:35:00.157Z,4.7
2022-09-02T10:40:00.421Z,8.3
2022-09-02T10:45:00.167Z,4.2
2022-09-02T10:50:00.403Z,5.9
2022-09-02T10:55:00.166Z,9.6
2022-09-02T11:00:00.342Z,5.1
2022-09-02T11:05:01.858Z,9.7
2022-09-02T11:10:00.438Z,9.4
2022-09-02T11:15:00.355Z,9.7
2022-09-02T11:20:00.386Z,8.8
2022-09-02T11:25:00.127Z,6.7
2022-09-02T11:30:01.091Z,4.9
2022-09-02T11:35:00.398Z,2.6
2022-09-02T11:40:33.056Z,4.8
2022-09-02T11:45:00.278Z,4.6
2022-09-02T11:50:00.301Z,11.3
2022-09-02T11:55:02.904Z,9.1
2022-09-02T12:00:00.323Z,3.0
2022-09-02T12:05:02.712Z,1.6
2022-09-02T12:10:00.266Z,2.4
2022-09-02T12:15:00.146Z,5.6
2022-09-02T12:20:00.503Z,2.6
2022-09-02T12:25:00.156Z,2.8
2022-09-02T12:30:00.290Z,4.7
2022-09-02T12:35:00.148Z,6.7
2022-09-02T12:40:00.287Z,8.4
2022-09-02T12:45:00.148Z,5.9
2022-09-02T12:50:00.292Z,2.8
2022-09-02T12:55:00.156Z,3.2
2022-09-02T13:00:00.296Z,6.4
2022-09-02T13:05:00.234Z,2.0
2022-09-02T13:10:00.314Z,1.8
2022-09-02T13:15:00.126Z,3.3
2022-09-02T13:20:00.289Z,4.9
2022-09-02T13:25:00.294Z,4.2
2022-09-02T13:30:00.336Z,5.6
2022-09-02T13:35:00.189Z,7.1
2022-09-02T13:40:00.348Z,8.4
2022-09-02T13:45:00.153Z,2.6
2022-09-02T13:50:00.323Z,9.2
2022-09-02T13:55:00.161Z,8.2
2022-09-02T14:00:00.357Z,9.9
2022-09-02T14:05:00.157Z,8.4
2022-09-02T14:10:00.300Z,4.6
2022-09-02T14:15:00.141Z,8.0
2022-09-02T14:20:02.568Z,7.8
2022-09-02T14:25:00.134Z,5.7
2022-09-02T14:30:01.039Z,11.5
2022-09-02T14:35:00.130Z,7.9
2022-09-02T14:40:00.562Z,6.9
2022-09-02T14:45:00.183Z,8.1
2022-09-02T14:50:00.512Z,6.0
2022-09-02T14:55:00.286Z,4.5
2022-09-02T15:00:00.308Z,8.2
2022-09-02T15:05:00.280Z,6.8
2022-09-02T15:10:00.312Z,5.7
2022-09-02T15:15:00.201Z,8.5
2022-09-02T15:20:00.399Z,11.6
2022-09-02T15:25:00.185Z,6.6
2022-09-02T15:30:00.368Z,4.8
2022-09-02T15:35:00.139Z,0.9
2022-09-02T15:40:00.529Z,3.7
2022-09-02T15:45:00.139Z,3.8
2022-09-02T15:50:00.303Z,5.0
2022-09-02T15:55:00.139Z,1.9
2022-09-02T16:00:00.322Z,4.4
2022-09-02T16:05:00.139Z,8.2
2022-09-02T16:10:03.977Z,7.7
2022-09-02T16:15:00.161Z,9.0
2022-09-02T16:20:00.400Z,9.5
2022-09-02T16:25:00.310Z,5.0
2022-09-02T16:30:00.307Z,7.9
2022-09-02T16:35:00.158Z,7.1
2022-09-02T16:40:00.603Z,8.1
2022-09-02T16:45:00.141Z,5.9
2022-09-02T16:50:00.285Z,6.0
2022-09-02T16:55:00.259Z,6.2
2022-09-02T17:00:00.312Z,10.3
2022-09-02T17:05:00.156Z,4.0
2022-09-02T17:10:00.318Z,6.9
2022-09-02T17:15:00.151Z,4.5
2022-09-02T17:20:00.299Z,5.5
2022-09-02T17:25:00.161Z,4.6
2022-09-02T17:30:00.285Z,4.2
2022-09-02T17:35:00.128Z,2.8
2022-09-02T17:40:00.607Z,5.3
2022-09-02T17:45:00.174Z,5.3
2022-09-02T17:50:00.289Z,4.4
2022-09-02T17:55:00.158Z,4.2
2022-09-02T18:00:00.338Z,2.7
2022-09-02T18:05:00.120Z,3.0
2022-09-02T18:10:00.329Z,3.3
2022-09-02T18:15:00.146Z,3.3
2022-09-02T18:20:00.298Z,3.1
2022-09-02T18:25:00.148Z,3.3
2022-09-02T18:30:00.328Z,2.3
2022-09-02T18:35:00.130Z,2.7
2022-09-02T18:40:03.460Z,3.3
2022-09-02T18:45:00.133Z,3.4
2022-09-02T18:50:00.283Z,2.2
2022-09-02T18:55:00.151Z,3.0
2022-09-02T19:00:00.334Z,3.0
2022-09-02T19:05:01.784Z,2.7
2022-09-02T19:10:00.292Z,3.3
2022-09-02T19:15:00.134Z,3.2
2022-09-02T19:20:00.298Z,3.2
2022-09-02T19:25:00.232Z,2.9
2022-09-02T19:30:00.293Z,1.4
2022-09-02T19:35:00.125Z,1.5
2022-09-02T19:40:04.379Z,2.9
2022-09-02T19:45:01.155Z,3.3
2022-09-02T19:50:00.265Z,2.8
2022-09-02T19:55:01.259Z,2.6
2022-09-02T20:00:00.408Z,1.8
2022-09-02T20:05:00.127Z,3.0
2022-09-02T20:10:00.284Z,2.5
2022-09-02T20:15:00.128Z,1.6
2022-09-02T20:20:00.504Z,1.3
2022-09-02T20:25:00.486Z,1.5
2022-09-02T20:30:00.305Z,2.0
2022-09-02T20:35:00.285Z,1.5
2022-09-02T20:40:00.471Z,1.1
2022-09-02T20:45:00.124Z,2.3
2022-09-02T20:50:00.967Z,1.6
2022-09-02T20:55:00.273Z,1.4
2022-09-02T21:00:00.379Z,0.3
2022-09-02T21:05:00.132Z,0.2
2022-09-02T21:10:00.294Z,0.0
2022-09-02T21:15:00.172Z,0.4
2022-09-02T21:20:00.310Z,0.4
2022-09-02T21:25:00.138Z,0.0
2022-09-02T21:30:03.226Z,0.0
2022-09-02T21:35:00.160Z,0.0
2022-09-02T21:40:00.430Z,0.0
2022-09-02T21:45:00.227Z,0.0
2022-09-02T21:50:00.290Z,0.0
2022-09-02T21:55:00.151Z,0.0
2022-09-02T22:00:00.449Z,0.0
2022-09-02T22:05:00.429Z,0.0
2022-09-02T22:10:00.298Z,0.0
2022-09-02T22:15:00.124Z,0.0
2022-09-02T22:20:00.305Z,0.0
2022-09-02T22:25:00.168Z,0.0
2022-09-02T22:30:00.296Z,0.0
2022-09-02T22:35:00.125Z,0.0
2022-09-02T22:40:00.553Z,0.0
2022-09-02T22:45:00.141Z,0.0
2022-09-02T22:50:00.337Z,0.0
2022-09-02T22:55:00.924Z,0.0
2022-09-02T23:00:02.487Z,0.0
2022-09-02T23:05:00.127Z,0.0
2022-09-02T23:10:00.255Z,0.0
2022-09-02T23:15:00.214Z,0.0
2022-09-02T23:20:00.261Z,0.0
2022-09-02T23:25:00.168Z,0.0
2022-09-02T23:30:00.805Z,0.0
2022-09-02T23:35:00.139Z,0.0
2022-09-02T23:40:00.511Z,0.0
2022-09-02T23:45:00.136Z,0.0
2022-09-02T23:50:00.285Z,0.0
2022-09-02T23:55:00.153Z,0.0
